sensor_id;sensor_type;location;lat;lon;timestamp;temperature;humidity
15103;DHT22;7652;53.584;9.998;2024-03-06T00:02:26;6.70;99.90
15103;DHT22;7652;53.584;9.998;2024-03-06T00:05:49;6.70;99.90
15103;DHT22;7652;53.584;9.998;2024-03-06T00:09:10;6.80;99.90
15103;DHT22;7652;53.584;9.998;2024-03-06T00:12:32;6.70;99.90
15103;DHT22;7652;53.584;9.998;2024-03-06T00:15:54;6.60;99.90
15103;DHT22;7652;53.584;9.998;2024-03-06T00:19:15;6.60;99.90
15103;DHT22;7652;53.584;9.998;2024-03-06T00:22:38;6.60;99.90
15103;DHT22;7652;53.584;9.998;2024-03-06T00:26:00;6.60;99.90
15103;DHT22;7652;53.584;9.998;2024-03-06T00:29:22;6.60;99.90
15103;DHT22;7652;53.584;9.998;2024-03-06T00:32:44;6.50;99.90
15103;DHT22;7652;53.584;9.998;2024-03-06T00:36:06;6.60;99.90
15103;DHT22;7652;53.584;9.998;2024-03-06T00:39:29;6.60;99.90
15103;DHT22;7652;53.584;9.998;2024-03-06T00:42:51;6.50;99.90
15103;DHT22;7652;53.584;9.998;2024-03-06T00:46:12;6.50;99.90
15103;DHT22;7652;53.584;9.998;2024-03-06T00:49:34;6.60;99.90
15103;DHT22;7652;53.584;9.998;2024-03-06T00:52:55;6.60;99.90
15103;DHT22;7652;53.584;9.998;2024-03-06T00:56:18;6.50;99.90
15103;DHT22;7652;53.584;9.998;2024-03-06T00:59:39;6.40;99.90
15103;DHT22;7652;53.584;9.998;2024-03-06T01:03:01;6.40;99.90
15103;DHT22;7652;53.584;9.998;2024-03-06T01:06:22;6.50;99.90
15103;DHT22;7652;53.584;9.998;2024-03-06T01:09:44;6.50;99.90
15103;DHT22;7652;53.584;9.998;2024-03-06T01:13:06;6.50;99.90
15103;DHT22;7652;53.584;9.998;2024-03-06T01:16:30;6.50;99.90
15103;DHT22;7652;53.584;9.998;2024-03-06T01:19:52;6.50;99.90
15103;DHT22;7652;53.584;9.998;2024-03-06T01:23:14;6.50;99.90
15103;DHT22;7652;53.584;9.998;2024-03-06T01:26:35;6.60;99.90
15103;DHT22;7652;53.584;9.998;2024-03-06T01:29:58;6.60;99.90
15103;DHT22;7652;53.584;9.998;2024-03-06T01:33:19;6.60;99.90
15103;DHT22;7652;53.584;9.998;2024-03-06T01:36:42;6.60;99.90
15103;DHT22;7652;53.584;9.998;2024-03-06T01:40:04;6.60;99.90
15103;DHT22;7652;53.584;9.998;2024-03-06T01:43:27;6.60;99.90
15103;DHT22;7652;53.584;9.998;2024-03-06T01:46:50;6.50;99.90
15103;DHT22;7652;53.584;9.998;2024-03-06T01:50:12;6.50;99.90
15103;DHT22;7652;53.584;9.998;2024-03-06T01:53:34;6.60;99.90
15103;DHT22;7652;53.584;9.998;2024-03-06T01:56:56;6.50;99.90
15103;DHT22;7652;53.584;9.998;2024-03-06T02:00:20;6.40;99.90
15103;DHT22;7652;53.584;9.998;2024-03-06T02:03:43;6.50;99.90
15103;DHT22;7652;53.584;9.998;2024-03-06T02:07:08;6.50;99.90
15103;DHT22;7652;53.584;9.998;2024-03-06T02:10:30;6.50;99.90
15103;DHT22;7652;53.584;9.998;2024-03-06T02:13:52;6.50;99.90
15103;DHT22;7652;53.584;9.998;2024-03-06T02:17:13;6.50;99.90
15103;DHT22;7652;53.584;9.998;2024-03-06T02:20:38;6.50;99.90
15103;DHT22;7652;53.584;9.998;2024-03-06T02:24:00;6.50;99.90
15103;DHT22;7652;53.584;9.998;2024-03-06T02:27:22;6.40;99.90
15103;DHT22;7652;53.584;9.998;2024-03-06T02:30:43;6.40;99.90
15103;DHT22;7652;53.584;9.998;2024-03-06T02:34:05;6.40;99.90
15103;DHT22;7652;53.584;9.998;2024-03-06T02:37:28;6.40;99.90
15103;DHT22;7652;53.584;9.998;2024-03-06T02:40:50;6.40;99.90
15103;DHT22;7652;53.584;9.998;2024-03-06T02:44:11;6.40;99.90
15103;DHT22;7652;53.584;9.998;2024-03-06T02:47:33;6.30;99.90
15103;DHT22;7652;53.584;9.998;2024-03-06T02:50:56;6.30;99.90
15103;DHT22;7652;53.584;9.998;2024-03-06T02:54:19;6.30;99.90
15103;DHT22;7652;53.584;9.998;2024-03-06T02:57:41;6.30;99.90
15103;DHT22;7652;53.584;9.998;2024-03-06T03:01:03;6.20;99.90
15103;DHT22;7652;53.584;9.998;2024-03-06T03:04:24;6.20;99.90
15103;DHT22;7652;53.584;9.998;2024-03-06T03:07:46;6.20;99.90
15103;DHT22;7652;53.584;9.998;2024-03-06T03:11:09;6.10;99.90
15103;DHT22;7652;53.584;9.998;2024-03-06T03:14:33;6.10;99.90
15103;DHT22;7652;53.584;9.998;2024-03-06T03:17:54;6.10;99.90
15103;DHT22;7652;53.584;9.998;2024-03-06T03:21:16;5.90;99.90
15103;DHT22;7652;53.584;9.998;2024-03-06T03:24:37;5.80;99.90
15103;DHT22;7652;53.584;9.998;2024-03-06T03:28:01;5.70;99.90
15103;DHT22;7652;53.584;9.998;2024-03-06T03:31:22;5.60;99.90
15103;DHT22;7652;53.584;9.998;2024-03-06T03:34:44;5.50;99.90
15103;DHT22;7652;53.584;9.998;2024-03-06T03:38:06;5.40;99.90
15103;DHT22;7652;53.584;9.998;2024-03-06T03:41:28;5.20;99.90
15103;DHT22;7652;53.584;9.998;2024-03-06T03:44:51;5.20;99.90
15103;DHT22;7652;53.584;9.998;2024-03-06T03:48:12;5.10;99.90
15103;DHT22;7652;53.584;9.998;2024-03-06T03:51:35;5.10;99.90
15103;DHT22;7652;53.584;9.998;2024-03-06T03:54:56;5.10;99.90
15103;DHT22;7652;53.584;9.998;2024-03-06T03:58:17;5.00;99.90
15103;DHT22;7652;53.584;9.998;2024-03-06T04:01:40;4.90;99.90
15103;DHT22;7652;53.584;9.998;2024-03-06T04:05:02;4.90;99.90
15103;DHT22;7652;53.584;9.998;2024-03-06T04:08:24;4.90;99.90
15103;DHT22;7652;53.584;9.998;2024-03-06T04:11:46;4.80;99.90
15103;DHT22;7652;53.584;9.998;2024-03-06T04:15:08;4.80;99.90
15103;DHT22;7652;53.584;9.998;2024-03-06T04:18:31;4.80;99.90
15103;DHT22;7652;53.584;9.998;2024-03-06T04:21:54;4.70;99.90
15103;DHT22;7652;53.584;9.998;2024-03-06T04:25:15;4.80;99.90
15103;DHT22;7652;53.584;9.998;2024-03-06T04:28:36;4.70;99.90
15103;DHT22;7652;53.584;9.998;2024-03-06T04:31:58;4.70;99.90
15103;DHT22;7652;53.584;9.998;2024-03-06T04:35:21;4.70;99.90
15103;DHT22;7652;53.584;9.998;2024-03-06T04:38:42;4.70;99.90
15103;DHT22;7652;53.584;9.998;2024-03-06T04:42:04;4.70;99.90
15103;DHT22;7652;53.584;9.998;2024-03-06T04:45:27;4.70;99.90
15103;DHT22;7652;53.584;9.998;2024-03-06T04:48:49;4.60;99.90
15103;DHT22;7652;53.584;9.998;2024-03-06T04:52:12;4.60;99.90
15103;DHT22;7652;53.584;9.998;2024-03-06T04:55:34;4.60;99.90
15103;DHT22;7652;53.584;9.998;2024-03-06T04:58:57;4.60;99.90
15103;DHT22;7652;53.584;9.998;2024-03-06T05:02:23;4.60;99.90
15103;DHT22;7652;53.584;9.998;2024-03-06T05:05:45;4.50;99.90
15103;DHT22;7652;53.584;9.998;2024-03-06T05:09:26;4.50;99.90
15103;DHT22;7652;53.584;9.998;2024-03-06T05:13:05;4.50;99.90
15103;DHT22;7652;53.584;9.998;2024-03-06T05:16:45;4.50;99.90
15103;DHT22;7652;53.584;9.998;2024-03-06T05:20:24;4.40;99.90
15103;DHT22;7652;53.584;9.998;2024-03-06T05:24:03;4.50;99.90
15103;DHT22;7652;53.584;9.998;2024-03-06T05:27:44;4.40;99.90
15103;DHT22;7652;53.584;9.998;2024-03-06T05:31:24;4.40;99.90
15103;DHT22;7652;53.584;9.998;2024-03-06T05:35:04;4.40;99.90
15103;DHT22;7652;53.584;9.998;2024-03-06T05:38:44;4.40;99.90
15103;DHT22;7652;53.584;9.998;2024-03-06T05:42:23;4.30;99.90
15103;DHT22;7652;53.584;9.998;2024-03-06T05:46:04;4.30;99.90
15103;DHT22;7652;53.584;9.998;2024-03-06T05:49:43;4.30;99.90
15103;DHT22;7652;53.584;9.998;2024-03-06T05:53:23;4.30;99.90
15103;DHT22;7652;53.584;9.998;2024-03-06T05:57:03;4.30;99.90
15103;DHT22;7652;53.584;9.998;2024-03-06T06:00:42;4.20;99.90
15103;DHT22;7652;53.584;9.998;2024-03-06T06:04:05;4.30;99.90
15103;DHT22;7652;53.584;9.998;2024-03-06T06:07:27;4.30;99.90
15103;DHT22;7652;53.584;9.998;2024-03-06T06:10:49;4.30;99.90
15103;DHT22;7652;53.584;9.998;2024-03-06T06:14:12;4.20;99.90
15103;DHT22;7652;53.584;9.998;2024-03-06T06:17:33;4.20;99.90
15103;DHT22;7652;53.584;9.998;2024-03-06T06:20:56;4.20;99.90
15103;DHT22;7652;53.584;9.998;2024-03-06T06:24:17;4.30;99.90
15103;DHT22;7652;53.584;9.998;2024-03-06T06:27:39;4.40;99.90
15103;DHT22;7652;53.584;9.998;2024-03-06T06:31:01;4.30;99.90
15103;DHT22;7652;53.584;9.998;2024-03-06T06:34:22;4.30;99.90
15103;DHT22;7652;53.584;9.998;2024-03-06T06:37:49;4.40;99.90
15103;DHT22;7652;53.584;9.998;2024-03-06T06:41:10;4.40;99.90
15103;DHT22;7652;53.584;9.998;2024-03-06T06:44:32;4.40;99.90
15103;DHT22;7652;53.584;9.998;2024-03-06T06:47:54;4.50;99.90
15103;DHT22;7652;53.584;9.998;2024-03-06T06:51:16;4.50;99.90
15103;DHT22;7652;53.584;9.998;2024-03-06T06:54:39;4.60;99.90
15103;DHT22;7652;53.584;9.998;2024-03-06T06:58:00;4.60;99.90
15103;DHT22;7652;53.584;9.998;2024-03-06T07:01:22;4.70;99.90
15103;DHT22;7652;53.584;9.998;2024-03-06T07:04:43;4.80;99.90
15103;DHT22;7652;53.584;9.998;2024-03-06T07:08:06;4.90;99.90
15103;DHT22;7652;53.584;9.998;2024-03-06T07:11:29;4.90;99.90
15103;DHT22;7652;53.584;9.998;2024-03-06T07:14:51;5.00;99.90
15103;DHT22;7652;53.584;9.998;2024-03-06T07:18:13;4.90;99.90
15103;DHT22;7652;53.584;9.998;2024-03-06T07:21:34;5.00;99.90
15103;DHT22;7652;53.584;9.998;2024-03-06T07:24:56;5.20;99.90
15103;DHT22;7652;53.584;9.998;2024-03-06T07:28:19;5.70;99.90
15103;DHT22;7652;53.584;9.998;2024-03-06T07:31:41;6.40;99.90
15103;DHT22;7652;53.584;9.998;2024-03-06T07:35:03;6.60;99.90
15103;DHT22;7652;53.584;9.998;2024-03-06T07:38:25;6.60;99.90
15103;DHT22;7652;53.584;9.998;2024-03-06T07:41:46;6.60;99.90
15103;DHT22;7652;53.584;9.998;2024-03-06T07:45:09;6.80;99.90
15103;DHT22;7652;53.584;9.998;2024-03-06T07:48:31;7.20;99.90
15103;DHT22;7652;53.584;9.998;2024-03-06T07:51:53;7.40;99.90
15103;DHT22;7652;53.584;9.998;2024-03-06T07:55:14;7.90;99.90
15103;DHT22;7652;53.584;9.998;2024-03-06T07:58:39;8.80;99.90
15103;DHT22;7652;53.584;9.998;2024-03-06T08:02:02;9.70;99.90
15103;DHT22;7652;53.584;9.998;2024-03-06T08:05:25;10.50;99.90
15103;DHT22;7652;53.584;9.998;2024-03-06T08:08:47;10.00;99.90
15103;DHT22;7652;53.584;9.998;2024-03-06T08:12:09;9.50;99.90
15103;DHT22;7652;53.584;9.998;2024-03-06T08:15:30;9.50;99.90
15103;DHT22;7652;53.584;9.998;2024-03-06T08:18:55;9.20;99.90
15103;DHT22;7652;53.584;9.998;2024-03-06T08:22:17;8.80;99.90
15103;DHT22;7652;53.584;9.998;2024-03-06T08:25:38;8.60;99.90
15103;DHT22;7652;53.584;9.998;2024-03-06T08:29:00;8.60;99.90
15103;DHT22;7652;53.584;9.998;2024-03-06T08:32:21;9.00;99.90
15103;DHT22;7652;53.584;9.998;2024-03-06T08:35:44;9.50;99.90
15103;DHT22;7652;53.584;9.998;2024-03-06T08:39:05;9.80;99.90
15103;DHT22;7652;53.584;9.998;2024-03-06T08:42:28;10.60;99.90
15103;DHT22;7652;53.584;9.998;2024-03-06T08:45:49;11.10;99.90
15103;DHT22;7652;53.584;9.998;2024-03-06T08:49:11;11.10;99.90
15103;DHT22;7652;53.584;9.998;2024-03-06T08:52:34;11.50;99.90
15103;DHT22;7652;53.584;9.998;2024-03-06T08:55:55;12.40;99.90
15103;DHT22;7652;53.584;9.998;2024-03-06T08:59:17;12.40;99.90
15103;DHT22;7652;53.584;9.998;2024-03-06T09:02:38;12.50;99.90
15103;DHT22;7652;53.584;9.998;2024-03-06T09:06:02;11.90;99.90
15103;DHT22;7652;53.584;9.998;2024-03-06T09:09:25;11.20;99.90
15103;DHT22;7652;53.584;9.998;2024-03-06T09:12:49;10.80;99.90
15103;DHT22;7652;53.584;9.998;2024-03-06T09:16:10;10.30;99.90
15103;DHT22;7652;53.584;9.998;2024-03-06T09:19:32;9.90;99.90
15103;DHT22;7652;53.584;9.998;2024-03-06T09:22:54;10.10;99.90
15103;DHT22;7652;53.584;9.998;2024-03-06T09:26:18;10.60;99.90
15103;DHT22;7652;53.584;9.998;2024-03-06T09:29:41;11.30;99.90
15103;DHT22;7652;53.584;9.998;2024-03-06T09:33:03;10.80;99.90
15103;DHT22;7652;53.584;9.998;2024-03-06T09:36:25;10.80;99.90
15103;DHT22;7652;53.584;9.998;2024-03-06T09:39:47;10.70;99.90
15103;DHT22;7652;53.584;9.998;2024-03-06T09:43:09;11.00;99.90
15103;DHT22;7652;53.584;9.998;2024-03-06T09:46:31;11.10;99.90
15103;DHT22;7652;53.584;9.998;2024-03-06T09:49:53;11.20;99.90
15103;DHT22;7652;53.584;9.998;2024-03-06T09:53:16;11.60;99.90
15103;DHT22;7652;53.584;9.998;2024-03-06T09:56:38;12.30;99.90
15103;DHT22;7652;53.584;9.998;2024-03-06T10:00:01;12.30;99.90
15103;DHT22;7652;53.584;9.998;2024-03-06T10:03:26;12.20;99.90
15103;DHT22;7652;53.584;9.998;2024-03-06T10:06:49;12.30;99.90
15103;DHT22;7652;53.584;9.998;2024-03-06T10:13:33;11.20;99.90
15103;DHT22;7652;53.584;9.998;2024-03-06T10:16:56;11.70;99.90
15103;DHT22;7652;53.584;9.998;2024-03-06T10:20:20;15.80;99.60
15103;DHT22;7652;53.584;9.998;2024-03-06T10:23:41;17.60;95.40
15103;DHT22;7652;53.584;9.998;2024-03-06T10:27:03;18.40;92.20
15103;DHT22;7652;53.584;9.998;2024-03-06T10:30:25;18.30;91.90
15103;DHT22;7652;53.584;9.998;2024-03-06T10:33:48;21.20;83.40
15103;DHT22;7652;53.584;9.998;2024-03-06T10:37:09;23.50;71.30
15103;DHT22;7652;53.584;9.998;2024-03-06T10:40:32;22.30;67.30
15103;DHT22;7652;53.584;9.998;2024-03-06T10:43:54;19.70;69.20
15103;DHT22;7652;53.584;9.998;2024-03-06T10:47:18;19.50;73.10
15103;DHT22;7652;53.584;9.998;2024-03-06T10:50:42;20.40;70.40
15103;DHT22;7652;53.584;9.998;2024-03-06T10:54:05;17.50;74.70
15103;DHT22;7652;53.584;9.998;2024-03-06T10:57:30;18.00;79.30
15103;DHT22;7652;53.584;9.998;2024-03-06T11:00:52;17.20;76.80
15103;DHT22;7652;53.584;9.998;2024-03-06T11:04:16;14.80;84.20
15103;DHT22;7652;53.584;9.998;2024-03-06T11:07:39;15.10;86.50
15103;DHT22;7652;53.584;9.998;2024-03-06T11:11:19;13.60;90.30
15103;DHT22;7652;53.584;9.998;2024-03-06T11:14:42;16.20;87.90
15103;DHT22;7652;53.584;9.998;2024-03-06T11:21:59;18.50;78.20
15103;DHT22;7652;53.584;9.998;2024-03-06T11:29:21;18.70;73.60
15103;DHT22;7652;53.584;9.998;2024-03-06T11:32:57;18.50;75.20
15103;DHT22;7652;53.584;9.998;2024-03-06T11:36:20;21.10;69.10
15103;DHT22;7652;53.584;9.998;2024-03-06T11:39:43;23.10;63.00
15103;DHT22;7652;53.584;9.998;2024-03-06T11:43:23;23.90;59.80
15103;DHT22;7652;53.584;9.998;2024-03-06T11:46:46;24.40;57.00
15103;DHT22;7652;53.584;9.998;2024-03-06T11:50:09;24.70;56.10
15103;DHT22;7652;53.584;9.998;2024-03-06T11:53:33;25.20;54.80
15103;DHT22;7652;53.584;9.998;2024-03-06T11:56:56;24.90;54.00
15103;DHT22;7652;53.584;9.998;2024-03-06T12:00:18;24.30;54.90
15103;DHT22;7652;53.584;9.998;2024-03-06T12:03:43;22.90;56.60
15103;DHT22;7652;53.584;9.998;2024-03-06T12:07:06;20.70;59.40
15103;DHT22;7652;53.584;9.998;2024-03-06T12:10:28;19.10;63.50
15103;DHT22;7652;53.584;9.998;2024-03-06T12:13:51;20.20;63.00
15103;DHT22;7652;53.584;9.998;2024-03-06T12:17:13;20.50;63.00
15103;DHT22;7652;53.584;9.998;2024-03-06T12:20:41;20.80;62.70
15103;DHT22;7652;53.584;9.998;2024-03-06T12:24:07;20.50;60.80
15103;DHT22;7652;53.584;9.998;2024-03-06T12:27:29;17.60;66.40
15103;DHT22;7652;53.584;9.998;2024-03-06T12:30:52;17.60;68.80
15103;DHT22;7652;53.584;9.998;2024-03-06T12:34:14;16.30;71.40
15103;DHT22;7652;53.584;9.998;2024-03-06T12:37:38;15.70;74.20
15103;DHT22;7652;53.584;9.998;2024-03-06T12:41:00;18.80;68.60
15103;DHT22;7652;53.584;9.998;2024-03-06T12:44:22;20.50;64.30
15103;DHT22;7652;53.584;9.998;2024-03-06T12:47:45;21.20;62.60
15103;DHT22;7652;53.584;9.998;2024-03-06T12:51:08;21.40;60.20
15103;DHT22;7652;53.584;9.998;2024-03-06T12:54:31;20.20;61.70
15103;DHT22;7652;53.584;9.998;2024-03-06T12:57:52;19.70;64.20
15103;DHT22;7652;53.584;9.998;2024-03-06T13:01:14;19.40;65.50
15103;DHT22;7652;53.584;9.998;2024-03-06T13:04:35;19.70;65.80
15103;DHT22;7652;53.584;9.998;2024-03-06T13:07:57;19.70;64.30
15103;DHT22;7652;53.584;9.998;2024-03-06T13:11:21;17.70;66.50
15103;DHT22;7652;53.584;9.998;2024-03-06T13:14:43;16.00;72.10
15103;DHT22;7652;53.584;9.998;2024-03-06T13:18:05;14.70;75.70
15103;DHT22;7652;53.584;9.998;2024-03-06T13:21:26;14.20;79.10
15103;DHT22;7652;53.584;9.998;2024-03-06T13:24:48;13.70;81.60
15103;DHT22;7652;53.584;9.998;2024-03-06T13:28:11;13.30;83.70
15103;DHT22;7652;53.584;9.998;2024-03-06T13:31:33;13.40;84.00
15103;DHT22;7652;53.584;9.998;2024-03-06T13:34:55;13.50;85.50
15103;DHT22;7652;53.584;9.998;2024-03-06T13:38:17;14.00;85.20
15103;DHT22;7652;53.584;9.998;2024-03-06T13:41:39;14.50;83.70
15103;DHT22;7652;53.584;9.998;2024-03-06T13:45:03;13.90;84.10
15103;DHT22;7652;53.584;9.998;2024-03-06T13:48:25;13.50;85.50
15103;DHT22;7652;53.584;9.998;2024-03-06T13:51:46;13.60;86.30
15103;DHT22;7652;53.584;9.998;2024-03-06T13:55:08;13.60;87.40
15103;DHT22;7652;53.584;9.998;2024-03-06T13:58:30;13.40;86.70
15103;DHT22;7652;53.584;9.998;2024-03-06T14:01:53;12.80;89.90
15103;DHT22;7652;53.584;9.998;2024-03-06T14:05:15;13.10;89.70
15103;DHT22;7652;53.584;9.998;2024-03-06T14:08:37;14.00;86.90
15103;DHT22;7652;53.584;9.998;2024-03-06T14:12:01;13.90;86.10
15103;DHT22;7652;53.584;9.998;2024-03-06T14:15:23;13.50;87.80
15103;DHT22;7652;53.584;9.998;2024-03-06T14:18:47;12.80;89.50
15103;DHT22;7652;53.584;9.998;2024-03-06T14:22:09;12.40;90.70
15103;DHT22;7652;53.584;9.998;2024-03-06T14:25:30;12.30;91.40
15103;DHT22;7652;53.584;9.998;2024-03-06T14:28:58;11.90;91.70
15103;DHT22;7652;53.584;9.998;2024-03-06T14:32:19;11.70;93.60
15103;DHT22;7652;53.584;9.998;2024-03-06T14:35:43;11.50;92.80
15103;DHT22;7652;53.584;9.998;2024-03-06T14:39:06;11.40;93.90
15103;DHT22;7652;53.584;9.998;2024-03-06T14:42:30;11.30;93.80
15103;DHT22;7652;53.584;9.998;2024-03-06T14:45:52;11.10;94.90
15103;DHT22;7652;53.584;9.998;2024-03-06T14:49:14;10.90;95.50
15103;DHT22;7652;53.584;9.998;2024-03-06T14:52:38;10.90;95.60
15103;DHT22;7652;53.584;9.998;2024-03-06T14:56:00;10.60;97.20
15103;DHT22;7652;53.584;9.998;2024-03-06T14:59:22;10.60;97.60
15103;DHT22;7652;53.584;9.998;2024-03-06T15:02:44;10.70;97.40
15103;DHT22;7652;53.584;9.998;2024-03-06T15:06:06;10.70;97.60
15103;DHT22;7652;53.584;9.998;2024-03-06T15:09:29;10.60;98.40
15103;DHT22;7652;53.584;9.998;2024-03-06T15:12:52;10.60;98.70
15103;DHT22;7652;53.584;9.998;2024-03-06T15:16:17;10.50;98.90
15103;DHT22;7652;53.584;9.998;2024-03-06T15:19:38;10.40;99.40
15103;DHT22;7652;53.584;9.998;2024-03-06T15:23:00;10.10;99.70
15103;DHT22;7652;53.584;9.998;2024-03-06T15:26:24;9.90;99.90
15103;DHT22;7652;53.584;9.998;2024-03-06T15:29:45;9.70;99.90
15103;DHT22;7652;53.584;9.998;2024-03-06T15:33:07;9.70;99.90
15103;DHT22;7652;53.584;9.998;2024-03-06T15:36:29;9.70;99.90
15103;DHT22;7652;53.584;9.998;2024-03-06T15:39:51;9.80;99.90
15103;DHT22;7652;53.584;9.998;2024-03-06T15:43:13;9.70;99.90
15103;DHT22;7652;53.584;9.998;2024-03-06T15:46:35;9.50;99.90
15103;DHT22;7652;53.584;9.998;2024-03-06T15:49:56;9.50;99.90
15103;DHT22;7652;53.584;9.998;2024-03-06T15:53:18;9.50;99.90
15103;DHT22;7652;53.584;9.998;2024-03-06T15:56:40;9.40;99.90
15103;DHT22;7652;53.584;9.998;2024-03-06T16:00:03;9.30;99.90
15103;DHT22;7652;53.584;9.998;2024-03-06T16:03:26;9.20;99.90
15103;DHT22;7652;53.584;9.998;2024-03-06T16:06:48;9.00;99.90
15103;DHT22;7652;53.584;9.998;2024-03-06T16:10:09;8.90;99.90
15103;DHT22;7652;53.584;9.998;2024-03-06T16:13:31;8.80;99.90
15103;DHT22;7652;53.584;9.998;2024-03-06T16:16:54;8.80;99.90
15103;DHT22;7652;53.584;9.998;2024-03-06T16:20:16;8.60;99.90
15103;DHT22;7652;53.584;9.998;2024-03-06T16:23:38;8.40;99.90
15103;DHT22;7652;53.584;9.998;2024-03-06T16:26:59;8.40;99.90
15103;DHT22;7652;53.584;9.998;2024-03-06T16:30:21;8.30;99.90
15103;DHT22;7652;53.584;9.998;2024-03-06T16:33:44;8.20;99.90
15103;DHT22;7652;53.584;9.998;2024-03-06T16:37:06;8.00;99.90
15103;DHT22;7652;53.584;9.998;2024-03-06T16:40:28;7.80;99.90
15103;DHT22;7652;53.584;9.998;2024-03-06T16:43:49;7.80;99.90
15103;DHT22;7652;53.584;9.998;2024-03-06T16:47:11;7.60;99.90
15103;DHT22;7652;53.584;9.998;2024-03-06T16:50:36;7.60;99.90
15103;DHT22;7652;53.584;9.998;2024-03-06T16:53:57;7.40;99.90
15103;DHT22;7652;53.584;9.998;2024-03-06T16:57:20;7.40;99.90
15103;DHT22;7652;53.584;9.998;2024-03-06T17:00:41;7.30;99.90
15103;DHT22;7652;53.584;9.998;2024-03-06T17:04:03;7.20;99.90
15103;DHT22;7652;53.584;9.998;2024-03-06T17:07:26;7.10;99.90
15103;DHT22;7652;53.584;9.998;2024-03-06T17:10:48;6.90;99.90
15103;DHT22;7652;53.584;9.998;2024-03-06T17:14:09;6.90;99.90
15103;DHT22;7652;53.584;9.998;2024-03-06T17:17:31;6.90;99.90
15103;DHT22;7652;53.584;9.998;2024-03-06T17:20:53;6.80;99.90
15103;DHT22;7652;53.584;9.998;2024-03-06T17:24:16;6.70;99.90
15103;DHT22;7652;53.584;9.998;2024-03-06T17:27:37;6.50;99.90
15103;DHT22;7652;53.584;9.998;2024-03-06T17:30:59;6.40;99.90
15103;DHT22;7652;53.584;9.998;2024-03-06T17:34:20;6.30;99.90
15103;DHT22;7652;53.584;9.998;2024-03-06T17:37:42;6.30;99.90
15103;DHT22;7652;53.584;9.998;2024-03-06T17:41:05;6.30;99.90
15103;DHT22;7652;53.584;9.998;2024-03-06T17:44:27;6.20;99.90
15103;DHT22;7652;53.584;9.998;2024-03-06T17:47:52;6.20;99.90
15103;DHT22;7652;53.584;9.998;2024-03-06T17:51:14;6.10;99.90
15103;DHT22;7652;53.584;9.998;2024-03-06T17:54:36;6.10;99.90
15103;DHT22;7652;53.584;9.998;2024-03-06T17:57:59;5.90;99.90
15103;DHT22;7652;53.584;9.998;2024-03-06T18:01:25;5.80;99.90
15103;DHT22;7652;53.584;9.998;2024-03-06T18:04:47;5.70;99.90
15103;DHT22;7652;53.584;9.998;2024-03-06T18:08:09;5.70;99.90
15103;DHT22;7652;53.584;9.998;2024-03-06T18:11:30;5.70;99.90
15103;DHT22;7652;53.584;9.998;2024-03-06T18:14:55;5.60;99.90
15103;DHT22;7652;53.584;9.998;2024-03-06T18:18:17;5.60;99.90
15103;DHT22;7652;53.584;9.998;2024-03-06T18:21:42;5.50;99.90
15103;DHT22;7652;53.584;9.998;2024-03-06T18:25:08;5.40;99.90
15103;DHT22;7652;53.584;9.998;2024-03-06T18:28:30;5.40;99.90
15103;DHT22;7652;53.584;9.998;2024-03-06T18:31:53;5.30;99.90
15103;DHT22;7652;53.584;9.998;2024-03-06T18:35:14;5.20;99.90
15103;DHT22;7652;53.584;9.998;2024-03-06T18:38:36;5.20;99.90
15103;DHT22;7652;53.584;9.998;2024-03-06T18:41:58;5.10;99.90
15103;DHT22;7652;53.584;9.998;2024-03-06T18:45:39;5.00;99.90
15103;DHT22;7652;53.584;9.998;2024-03-06T18:49:02;5.00;99.90
15103;DHT22;7652;53.584;9.998;2024-03-06T18:52:24;5.00;99.90
15103;DHT22;7652;53.584;9.998;2024-03-06T18:55:45;4.90;99.90
15103;DHT22;7652;53.584;9.998;2024-03-06T18:59:06;4.90;99.90
15103;DHT22;7652;53.584;9.998;2024-03-06T19:02:32;4.80;99.90
15103;DHT22;7652;53.584;9.998;2024-03-06T19:05:55;4.80;99.90
15103;DHT22;7652;53.584;9.998;2024-03-06T19:09:17;4.70;99.90
15103;DHT22;7652;53.584;9.998;2024-03-06T19:12:39;4.70;99.90
15103;DHT22;7652;53.584;9.998;2024-03-06T19:16:02;4.70;99.90
15103;DHT22;7652;53.584;9.998;2024-03-06T19:19:24;4.60;99.90
15103;DHT22;7652;53.584;9.998;2024-03-06T19:22:47;4.60;99.90
15103;DHT22;7652;53.584;9.998;2024-03-06T19:26:09;4.50;99.90
15103;DHT22;7652;53.584;9.998;2024-03-06T19:29:31;4.50;99.90
15103;DHT22;7652;53.584;9.998;2024-03-06T19:32:52;4.40;99.90
15103;DHT22;7652;53.584;9.998;2024-03-06T19:36:15;4.30;99.90
15103;DHT22;7652;53.584;9.998;2024-03-06T19:39:38;4.30;99.90
15103;DHT22;7652;53.584;9.998;2024-03-06T19:42:59;4.30;99.90
15103;DHT22;7652;53.584;9.998;2024-03-06T19:46:21;4.20;99.90
15103;DHT22;7652;53.584;9.998;2024-03-06T19:49:43;4.20;99.90
15103;DHT22;7652;53.584;9.998;2024-03-06T19:53:05;4.20;99.90
15103;DHT22;7652;53.584;9.998;2024-03-06T19:56:27;4.10;99.90
15103;DHT22;7652;53.584;9.998;2024-03-06T19:59:49;4.10;99.90
15103;DHT22;7652;53.584;9.998;2024-03-06T20:03:11;4.10;99.90
15103;DHT22;7652;53.584;9.998;2024-03-06T20:06:32;4.00;99.90
15103;DHT22;7652;53.584;9.998;2024-03-06T20:09:54;4.00;99.90
15103;DHT22;7652;53.584;9.998;2024-03-06T20:13:17;4.00;99.90
15103;DHT22;7652;53.584;9.998;2024-03-06T20:16:39;3.90;99.90
15103;DHT22;7652;53.584;9.998;2024-03-06T20:20:00;3.90;99.90
15103;DHT22;7652;53.584;9.998;2024-03-06T20:23:22;3.90;99.90
15103;DHT22;7652;53.584;9.998;2024-03-06T20:26:44;3.80;99.90
15103;DHT22;7652;53.584;9.998;2024-03-06T20:30:07;3.80;99.90
15103;DHT22;7652;53.584;9.998;2024-03-06T20:33:30;3.80;99.90
15103;DHT22;7652;53.584;9.998;2024-03-06T20:36:52;3.80;99.90
15103;DHT22;7652;53.584;9.998;2024-03-06T20:40:13;3.70;99.90
15103;DHT22;7652;53.584;9.998;2024-03-06T20:43:35;3.70;99.90
15103;DHT22;7652;53.584;9.998;2024-03-06T20:47:01;3.70;99.90
15103;DHT22;7652;53.584;9.998;2024-03-06T20:50:22;3.80;99.90
15103;DHT22;7652;53.584;9.998;2024-03-06T20:53:44;3.80;99.90
15103;DHT22;7652;53.584;9.998;2024-03-06T20:57:06;3.80;99.90
15103;DHT22;7652;53.584;9.998;2024-03-06T21:00:28;3.80;99.90
15103;DHT22;7652;53.584;9.998;2024-03-06T21:03:52;3.70;99.90
15103;DHT22;7652;53.584;9.998;2024-03-06T21:07:14;3.60;99.90
15103;DHT22;7652;53.584;9.998;2024-03-06T21:10:35;3.60;99.90
15103;DHT22;7652;53.584;9.998;2024-03-06T21:13:59;3.50;99.90
15103;DHT22;7652;53.584;9.998;2024-03-06T21:17:21;3.50;99.90
15103;DHT22;7652;53.584;9.998;2024-03-06T21:20:45;3.50;99.90
15103;DHT22;7652;53.584;9.998;2024-03-06T21:24:07;3.50;99.90
15103;DHT22;7652;53.584;9.998;2024-03-06T21:27:31;3.50;99.90
15103;DHT22;7652;53.584;9.998;2024-03-06T21:30:52;3.50;99.90
15103;DHT22;7652;53.584;9.998;2024-03-06T21:34:14;3.50;99.90
15103;DHT22;7652;53.584;9.998;2024-03-06T21:37:37;3.40;99.90
15103;DHT22;7652;53.584;9.998;2024-03-06T21:40:58;3.50;99.90
15103;DHT22;7652;53.584;9.998;2024-03-06T21:44:21;3.50;99.90
15103;DHT22;7652;53.584;9.998;2024-03-06T21:47:43;3.60;99.90
15103;DHT22;7652;53.584;9.998;2024-03-06T21:51:04;3.50;99.90
15103;DHT22;7652;53.584;9.998;2024-03-06T21:54:27;3.50;99.90
15103;DHT22;7652;53.584;9.998;2024-03-06T21:57:49;3.50;99.90
15103;DHT22;7652;53.584;9.998;2024-03-06T22:01:10;3.50;99.90
15103;DHT22;7652;53.584;9.998;2024-03-06T22:04:32;3.50;99.90
15103;DHT22;7652;53.584;9.998;2024-03-06T22:07:53;3.50;99.90
15103;DHT22;7652;53.584;9.998;2024-03-06T22:11:17;3.60;99.90